sensor_id;sensor_type;location;lat;lon;timestamp;pressure;altitude;pressure_sealevel;temperature
66372;BMP180;53168;51.146;17.120;2024-03-17T00:00:18;100592.00;;;5.98
66372;BMP180;53168;51.146;17.120;2024-03-17T00:03:15;100595.20;;;5.90
66372;BMP180;53168;51.146;17.120;2024-03-17T00:05:56;100595.20;;;5.90
66372;BMP180;53168;51.146;17.120;2024-03-17T00:08:32;100599.80;;;5.90
66372;BMP180;53168;51.146;17.120;2024-03-17T00:11:06;100606.40;;;5.90
66372;BMP180;53168;51.146;17.120;2024-03-17T00:13:44;100602.80;;;5.84
66372;BMP180;53168;51.146;17.120;2024-03-17T00:16:22;100603.00;;;5.80
66372;BMP180;53168;51.146;17.120;2024-03-17T00:18:56;100596.40;;;5.80
66372;BMP180;53168;51.146;17.120;2024-03-17T00:21:30;100597.80;;;5.80
66372;BMP180;53168;51.146;17.120;2024-03-17T00:24:05;100597.80;;;5.70
66372;BMP180;53168;51.146;17.120;2024-03-17T00:28:36;100601.40;;;5.60
66372;BMP180;53168;51.146;17.120;2024-03-17T00:31:08;100599.60;;;5.52
66372;BMP180;53168;51.146;17.120;2024-03-17T00:33:44;100604.40;;;5.44
66372;BMP180;53168;51.146;17.120;2024-03-17T00:36:17;100603.20;;;5.40
66372;BMP180;53168;51.146;17.120;2024-03-17T00:38:48;100596.20;;;5.30
66372;BMP180;53168;51.146;17.120;2024-03-17T00:42:04;100603.40;;;5.20
66372;BMP180;53168;51.146;17.120;2024-03-17T00:44:42;100599.80;;;5.10
66372;BMP180;53168;51.146;17.120;2024-03-17T00:47:15;100606.40;;;5.10
66372;BMP180;53168;51.146;17.120;2024-03-17T00:49:47;100610.20;;;5.00
66372;BMP180;53168;51.146;17.120;2024-03-17T00:52:20;100608.00;;;4.92
66372;BMP180;53168;51.146;17.120;2024-03-17T00:54:51;100608.40;;;4.90
66372;BMP180;53168;51.146;17.120;2024-03-17T00:57:22;100610.40;;;4.90
66372;BMP180;53168;51.146;17.120;2024-03-17T00:59:53;100608.60;;;4.90
66372;BMP180;53168;51.146;17.120;2024-03-17T01:02:24;100609.60;;;4.90
66372;BMP180;53168;51.146;17.120;2024-03-17T01:04:55;100610.40;;;4.90
66372;BMP180;53168;51.146;17.120;2024-03-17T01:07:26;100607.60;;;4.90
66372;BMP180;53168;51.146;17.120;2024-03-17T01:09:57;100608.40;;;4.90
66372;BMP180;53168;51.146;17.120;2024-03-17T01:12:28;100611.80;;;4.90
66372;BMP180;53168;51.146;17.120;2024-03-17T01:15:01;100607.20;;;4.90
66372;BMP180;53168;51.146;17.120;2024-03-17T01:17:34;100612.20;;;4.80
66372;BMP180;53168;51.146;17.120;2024-03-17T01:20:09;100609.20;;;4.80
66372;BMP180;53168;51.146;17.120;2024-03-17T01:22:45;100604.00;;;4.70
66372;BMP180;53168;51.146;17.120;2024-03-17T01:25:16;100606.60;;;4.60
66372;BMP180;53168;51.146;17.120;2024-03-17T01:27:50;100609.20;;;4.60
66372;BMP180;53168;51.146;17.120;2024-03-17T01:30:21;100613.80;;;4.50
66372;BMP180;53168;51.146;17.120;2024-03-17T01:32:52;100607.40;;;4.50
66372;BMP180;53168;51.146;17.120;2024-03-17T01:35:25;100608.80;;;4.50
66372;BMP180;53168;51.146;17.120;2024-03-17T01:37:57;100617.20;;;4.40
66372;BMP180;53168;51.146;17.120;2024-03-17T01:40:28;100614.20;;;4.40
66372;BMP180;53168;51.146;17.120;2024-03-17T01:43:01;100619.20;;;4.32
66372;BMP180;53168;51.146;17.120;2024-03-17T01:45:35;100615.60;;;4.30
66372;BMP180;53168;51.146;17.120;2024-03-17T01:48:14;100617.00;;;4.30
66372;BMP180;53168;51.146;17.120;2024-03-17T01:50:51;100613.80;;;4.28
66372;BMP180;53168;51.146;17.120;2024-03-17T01:53:27;100609.80;;;4.20
66372;BMP180;53168;51.146;17.120;2024-03-17T01:56:03;100613.40;;;4.20
66372;BMP180;53168;51.146;17.120;2024-03-17T01:58:38;100618.00;;;4.30
66372;BMP180;53168;51.146;17.120;2024-03-17T02:01:11;100615.60;;;4.30
66372;BMP180;53168;51.146;17.120;2024-03-17T02:03:47;100617.40;;;4.28
66372;BMP180;53168;51.146;17.120;2024-03-17T02:06:18;100615.20;;;4.20
66372;BMP180;53168;51.146;17.120;2024-03-17T02:08:50;100614.80;;;4.10
66372;BMP180;53168;51.146;17.120;2024-03-17T02:11:29;100615.00;;;4.00
66372;BMP180;53168;51.146;17.120;2024-03-17T02:14:07;100621.60;;;4.00
66372;BMP180;53168;51.146;17.120;2024-03-17T02:16:38;100621.80;;;4.00
66372;BMP180;53168;51.146;17.120;2024-03-17T02:19:09;100626.40;;;4.06
66372;BMP180;53168;51.146;17.120;2024-03-17T02:21:40;100625.60;;;4.10
66372;BMP180;53168;51.146;17.120;2024-03-17T02:24:11;100621.00;;;4.10
66372;BMP180;53168;51.146;17.120;2024-03-17T02:26:45;100624.20;;;4.10
66372;BMP180;53168;51.146;17.120;2024-03-17T02:29:16;100621.40;;;4.10
66372;BMP180;53168;51.146;17.120;2024-03-17T02:31:49;100619.40;;;4.00
66372;BMP180;53168;51.146;17.120;2024-03-17T02:34:21;100622.20;;;3.94
66372;BMP180;53168;51.146;17.120;2024-03-17T02:36:53;100623.00;;;3.90
66372;BMP180;53168;51.146;17.120;2024-03-17T02:39:24;100629.80;;;3.90
66372;BMP180;53168;51.146;17.120;2024-03-17T02:42:10;100632.20;;;3.90
66372;BMP180;53168;51.146;17.120;2024-03-17T02:44:41;100634.60;;;3.90
66372;BMP180;53168;51.146;17.120;2024-03-17T02:47:12;100637.00;;;3.80
66372;BMP180;53168;51.146;17.120;2024-03-17T02:49:49;100639.80;;;3.80
66372;BMP180;53168;51.146;17.120;2024-03-17T02:52:20;100640.20;;;3.80
66372;BMP180;53168;51.146;17.120;2024-03-17T02:54:51;100649.00;;;3.80
66372;BMP180;53168;51.146;17.120;2024-03-17T02:57:30;100647.00;;;3.82
66372;BMP180;53168;51.146;17.120;2024-03-17T03:00:02;100644.20;;;3.80
66372;BMP180;53168;51.146;17.120;2024-03-17T03:02:34;100649.20;;;3.80
66372;BMP180;53168;51.146;17.120;2024-03-17T03:05:10;100651.20;;;3.74
66372;BMP180;53168;51.146;17.120;2024-03-17T03:08:18;100655.60;;;3.62
66372;BMP180;53168;51.146;17.120;2024-03-17T03:10:52;100651.60;;;3.60
66372;BMP180;53168;51.146;17.120;2024-03-17T03:13:26;100658.20;;;3.50
66372;BMP180;53168;51.146;17.120;2024-03-17T03:16:00;100656.00;;;3.40
66372;BMP180;53168;51.146;17.120;2024-03-17T03:18:35;100658.60;;;3.30
66372;BMP180;53168;51.146;17.120;2024-03-17T03:21:09;100659.60;;;3.30
66372;BMP180;53168;51.146;17.120;2024-03-17T03:23:44;100655.00;;;3.30
66372;BMP180;53168;51.146;17.120;2024-03-17T03:26:21;100657.60;;;3.30
66372;BMP180;53168;51.146;17.120;2024-03-17T03:28:56;100657.60;;;3.30
66372;BMP180;53168;51.146;17.120;2024-03-17T03:31:31;100657.80;;;3.24
66372;BMP180;53168;51.146;17.120;2024-03-17T03:34:05;100660.00;;;3.20
66372;BMP180;53168;51.146;17.120;2024-03-17T03:36:43;100657.40;;;3.18
66372;BMP180;53168;51.146;17.120;2024-03-17T03:39:19;100652.80;;;3.14
66372;BMP180;53168;51.146;17.120;2024-03-17T03:41:54;100652.40;;;3.12
66372;BMP180;53168;51.146;17.120;2024-03-17T03:44:30;100654.00;;;3.10
66372;BMP180;53168;51.146;17.120;2024-03-17T03:47:06;100652.60;;;3.10
66372;BMP180;53168;51.146;17.120;2024-03-17T03:49:40;100652.00;;;3.00
66372;BMP180;53168;51.146;17.120;2024-03-17T03:52:16;100657.60;;;3.00
66372;BMP180;53168;51.146;17.120;2024-03-17T03:54:55;100655.60;;;3.00
66372;BMP180;53168;51.146;17.120;2024-03-17T03:57:30;100653.20;;;2.92
66372;BMP180;53168;51.146;17.120;2024-03-17T04:00:08;100654.40;;;2.90
66372;BMP180;53168;51.146;17.120;2024-03-17T04:02:46;100651.60;;;2.90
66372;BMP180;53168;51.146;17.120;2024-03-17T04:05:22;100647.60;;;2.90
66372;BMP180;53168;51.146;17.120;2024-03-17T04:08:00;100650.20;;;2.90
66372;BMP180;53168;51.146;17.120;2024-03-17T04:10:35;100656.60;;;2.80
66372;BMP180;53168;51.146;17.120;2024-03-17T04:13:09;100657.00;;;2.82
66372;BMP180;53168;51.146;17.120;2024-03-17T04:15:46;100660.40;;;2.90
66372;BMP180;53168;51.146;17.120;2024-03-17T04:18:24;100658.60;;;2.90
66372;BMP180;53168;51.146;17.120;2024-03-17T04:21:03;100658.80;;;2.98
66372;BMP180;53168;51.146;17.120;2024-03-17T04:23:37;100660.20;;;3.00
66372;BMP180;53168;51.146;17.120;2024-03-17T04:26:12;100659.60;;;3.00
66372;BMP180;53168;51.146;17.120;2024-03-17T04:28:47;100656.60;;;2.90
66372;BMP180;53168;51.146;17.120;2024-03-17T04:31:22;100657.20;;;2.90
66372;BMP180;53168;51.146;17.120;2024-03-17T04:33:56;100659.80;;;2.90
66372;BMP180;53168;51.146;17.120;2024-03-17T04:36:31;100659.00;;;2.80
66372;BMP180;53168;51.146;17.120;2024-03-17T04:39:05;100671.40;;;2.80
66372;BMP180;53168;51.146;17.120;2024-03-17T04:41:42;100671.60;;;2.70
66372;BMP180;53168;51.146;17.120;2024-03-17T04:44:19;100677.60;;;2.70
66372;BMP180;53168;51.146;17.120;2024-03-17T04:46:55;100669.00;;;2.70
66372;BMP180;53168;51.146;17.120;2024-03-17T04:49:30;100680.40;;;2.70
66372;BMP180;53168;51.146;17.120;2024-03-17T04:52:06;100675.60;;;2.70
66372;BMP180;53168;51.146;17.120;2024-03-17T04:54:43;100676.80;;;2.70
66372;BMP180;53168;51.146;17.120;2024-03-17T04:57:17;100683.80;;;2.70
66372;BMP180;53168;51.146;17.120;2024-03-17T04:59:54;100678.40;;;2.70
66372;BMP180;53168;51.146;17.120;2024-03-17T05:02:28;100681.60;;;2.70
66372;BMP180;53168;51.146;17.120;2024-03-17T05:05:06;100680.00;;;2.70
66372;BMP180;53168;51.146;17.120;2024-03-17T05:07:43;100682.20;;;2.80
66372;BMP180;53168;51.146;17.120;2024-03-17T05:10:17;100681.20;;;2.80
66372;BMP180;53168;51.146;17.120;2024-03-17T05:12:55;100680.00;;;2.90
66372;BMP180;53168;51.146;17.120;2024-03-17T05:15:29;100684.00;;;3.00
66372;BMP180;53168;51.146;17.120;2024-03-17T05:18:04;100681.00;;;3.00
66372;BMP180;53168;51.146;17.120;2024-03-17T05:20:39;100687.40;;;3.02
66372;BMP180;53168;51.146;17.120;2024-03-17T05:23:14;100687.80;;;3.00
66372;BMP180;53168;51.146;17.120;2024-03-17T05:25:56;100689.60;;;2.92
66372;BMP180;53168;51.146;17.120;2024-03-17T05:28:32;100695.20;;;2.90
66372;BMP180;53168;51.146;17.120;2024-03-17T05:31:07;100698.60;;;2.96
66372;BMP180;53168;51.146;17.120;2024-03-17T05:33:41;100695.20;;;3.00
66372;BMP180;53168;51.146;17.120;2024-03-17T05:36:16;100696.20;;;3.10
66372;BMP180;53168;51.146;17.120;2024-03-17T05:38:55;100700.80;;;3.10
66372;BMP180;53168;51.146;17.120;2024-03-17T05:41:30;100702.20;;;3.12
66372;BMP180;53168;51.146;17.120;2024-03-17T05:44:08;100698.80;;;3.16
66372;BMP180;53168;51.146;17.120;2024-03-17T05:46:43;100702.00;;;3.20
66372;BMP180;53168;51.146;17.120;2024-03-17T05:49:19;100702.20;;;3.30
66372;BMP180;53168;51.146;17.120;2024-03-17T05:51:59;100707.80;;;3.30
66372;BMP180;53168;51.146;17.120;2024-03-17T05:54:36;100707.40;;;3.30
66372;BMP180;53168;51.146;17.120;2024-03-17T05:57:10;100700.40;;;3.32
66372;BMP180;53168;51.146;17.120;2024-03-17T05:59:47;100706.40;;;3.40
66372;BMP180;53168;51.146;17.120;2024-03-17T06:02:22;100695.40;;;3.44
66372;BMP180;53168;51.146;17.120;2024-03-17T06:04:57;100697.00;;;3.50
66372;BMP180;53168;51.146;17.120;2024-03-17T06:07:36;100699.20;;;3.50
66372;BMP180;53168;51.146;17.120;2024-03-17T06:10:11;100709.20;;;3.60
66372;BMP180;53168;51.146;17.120;2024-03-17T06:12:46;100699.00;;;3.60
66372;BMP180;53168;51.146;17.120;2024-03-17T06:15:20;100698.60;;;3.60
66372;BMP180;53168;51.146;17.120;2024-03-17T06:18:00;100708.60;;;3.70
66372;BMP180;53168;51.146;17.120;2024-03-17T06:20:38;100709.60;;;3.80
66372;BMP180;53168;51.146;17.120;2024-03-17T06:23:15;100715.40;;;3.82
66372;BMP180;53168;51.146;17.120;2024-03-17T06:25:51;100719.60;;;3.98
66372;BMP180;53168;51.146;17.120;2024-03-17T06:28:27;100722.40;;;4.10
66372;BMP180;53168;51.146;17.120;2024-03-17T06:31:02;100722.80;;;4.20
66372;BMP180;53168;51.146;17.120;2024-03-17T06:33:41;100723.00;;;4.26
66372;BMP180;53168;51.146;17.120;2024-03-17T06:36:15;100731.80;;;4.30
66372;BMP180;53168;51.146;17.120;2024-03-17T06:38:51;100732.60;;;4.40
66372;BMP180;53168;51.146;17.120;2024-03-17T06:41:31;100739.80;;;4.60
66372;BMP180;53168;51.146;17.120;2024-03-17T06:44:07;100741.20;;;4.60
66372;BMP180;53168;51.146;17.120;2024-03-17T06:46:42;100744.60;;;4.70
66372;BMP180;53168;51.146;17.120;2024-03-17T06:49:20;100742.60;;;4.70
66372;BMP180;53168;51.146;17.120;2024-03-17T06:51:55;100748.60;;;4.82
66372;BMP180;53168;51.146;17.120;2024-03-17T06:54:32;100749.40;;;4.90
66372;BMP180;53168;51.146;17.120;2024-03-17T06:57:06;100744.80;;;5.00
66372;BMP180;53168;51.146;17.120;2024-03-17T06:59:40;100747.80;;;5.00
66372;BMP180;53168;51.146;17.120;2024-03-17T07:02:17;100755.20;;;5.10
66372;BMP180;53168;51.146;17.120;2024-03-17T07:04:52;100747.00;;;5.18
66372;BMP180;53168;51.146;17.120;2024-03-17T07:07:33;100752.80;;;5.20
66372;BMP180;53168;51.146;17.120;2024-03-17T07:10:10;100756.60;;;5.30
66372;BMP180;53168;51.146;17.120;2024-03-17T07:12:45;100750.20;;;5.40
66372;BMP180;53168;51.146;17.120;2024-03-17T07:15:20;100753.20;;;5.50
66372;BMP180;53168;51.146;17.120;2024-03-17T07:17:55;100754.00;;;5.66
66372;BMP180;53168;51.146;17.120;2024-03-17T07:24:02;100753.80;;;6.02
66372;BMP180;53168;51.146;17.120;2024-03-17T07:27:11;100755.20;;;6.20
66372;BMP180;53168;51.146;17.120;2024-03-17T07:29:47;100751.60;;;6.20
66372;BMP180;53168;51.146;17.120;2024-03-17T07:32:23;100765.80;;;6.30
66372;BMP180;53168;51.146;17.120;2024-03-17T07:35:01;100760.20;;;6.30
66372;BMP180;53168;51.146;17.120;2024-03-17T07:37:38;100760.40;;;6.30
66372;BMP180;53168;51.146;17.120;2024-03-17T07:40:15;100753.40;;;6.40
66372;BMP180;53168;51.146;17.120;2024-03-17T07:42:50;100754.40;;;6.62
66372;BMP180;53168;51.146;17.120;2024-03-17T07:45:25;100760.80;;;6.70
66372;BMP180;53168;51.146;17.120;2024-03-17T07:48:02;100750.80;;;6.84
66372;BMP180;53168;51.146;17.120;2024-03-17T07:50:36;100753.60;;;6.94
66372;BMP180;53168;51.146;17.120;2024-03-17T07:53:12;100765.20;;;7.10
66372;BMP180;53168;51.146;17.120;2024-03-17T07:57:50;100762.80;;;6.98
66372;BMP180;53168;51.146;17.120;2024-03-17T08:00:21;100759.20;;;7.02
66372;BMP180;53168;51.146;17.120;2024-03-17T08:02:52;100759.80;;;7.18
66372;BMP180;53168;51.146;17.120;2024-03-17T08:05:23;100766.40;;;7.20
66372;BMP180;53168;51.146;17.120;2024-03-17T08:07:54;100757.60;;;7.06
66372;BMP180;53168;51.146;17.120;2024-03-17T08:10:25;100756.40;;;6.90
66372;BMP180;53168;51.146;17.120;2024-03-17T08:13:00;100757.60;;;6.88
66372;BMP180;53168;51.146;17.120;2024-03-17T08:15:33;100764.80;;;6.70
66372;BMP180;53168;51.146;17.120;2024-03-17T08:18:04;100764.40;;;6.70
66372;BMP180;53168;51.146;17.120;2024-03-17T08:20:39;100756.20;;;6.68
66372;BMP180;53168;51.146;17.120;2024-03-17T08:23:11;100756.40;;;6.90
66372;BMP180;53168;51.146;17.120;2024-03-17T08:25:49;100764.00;;;7.00
66372;BMP180;53168;51.146;17.120;2024-03-17T08:28:22;100751.20;;;7.00
66372;BMP180;53168;51.146;17.120;2024-03-17T08:30:55;100755.00;;;7.14
66372;BMP180;53168;51.146;17.120;2024-03-17T08:33:29;100755.40;;;7.28
66372;BMP180;53168;51.146;17.120;2024-03-17T08:36:05;100754.40;;;7.38
66372;BMP180;53168;51.146;17.120;2024-03-17T08:38:41;100749.40;;;7.30
66372;BMP180;53168;51.146;17.120;2024-03-17T08:41:12;100761.80;;;7.50
66372;BMP180;53168;51.146;17.120;2024-03-17T08:44:28;100759.60;;;7.40
66372;BMP180;53168;51.146;17.120;2024-03-17T08:47:45;100750.60;;;7.60
66372;BMP180;53168;51.146;17.120;2024-03-17T08:50:58;100770.20;;;7.50
66372;BMP180;53168;51.146;17.120;2024-03-17T08:54:05;100753.40;;;7.40
66372;BMP180;53168;51.146;17.120;2024-03-17T08:56:37;100753.80;;;7.66
66372;BMP180;53168;51.146;17.120;2024-03-17T08:59:08;100758.60;;;7.60
66372;BMP180;53168;51.146;17.120;2024-03-17T09:01:45;100762.00;;;7.24
66372;BMP180;53168;51.146;17.120;2024-03-17T09:04:17;100754.20;;;7.22
66372;BMP180;53168;51.146;17.120;2024-03-17T09:06:49;100759.60;;;7.40
66372;BMP180;53168;51.146;17.120;2024-03-17T09:09:21;100750.00;;;7.68
66372;BMP180;53168;51.146;17.120;2024-03-17T09:11:51;100766.80;;;8.10
66372;BMP180;53168;51.146;17.120;2024-03-17T09:14:38;100764.80;;;8.10
66372;BMP180;53168;51.146;17.120;2024-03-17T09:17:16;100757.80;;;7.76
66372;BMP180;53168;51.146;17.120;2024-03-17T09:19:55;100756.60;;;7.56
66372;BMP180;53168;51.146;17.120;2024-03-17T09:22:32;100763.00;;;7.70
66372;BMP180;53168;51.146;17.120;2024-03-17T09:25:04;100760.80;;;7.80
66372;BMP180;53168;51.146;17.120;2024-03-17T09:27:36;100753.60;;;7.92
66372;BMP180;53168;51.146;17.120;2024-03-17T09:37:16;100774.00;;;7.46
66372;BMP180;53168;51.146;17.120;2024-03-17T09:39:52;100759.20;;;7.34
66372;BMP180;53168;51.146;17.120;2024-03-17T09:42:31;100754.60;;;7.48
66372;BMP180;53168;51.146;17.120;2024-03-17T09:45:07;100764.40;;;7.70
66372;BMP180;53168;51.146;17.120;2024-03-17T09:47:42;100765.20;;;7.92
66372;BMP180;53168;51.146;17.120;2024-03-17T10:07:41;100747.80;;;9.66
66372;BMP180;53168;51.146;17.120;2024-03-17T10:10:17;100750.40;;;9.78
66372;BMP180;53168;51.146;17.120;2024-03-17T10:12:52;100741.20;;;9.84
66372;BMP180;53168;51.146;17.120;2024-03-17T10:15:24;100737.60;;;9.58
66372;BMP180;53168;51.146;17.120;2024-03-17T10:17:58;100734.80;;;9.50
66372;BMP180;53168;51.146;17.120;2024-03-17T10:20:29;100734.80;;;9.60
66372;BMP180;53168;51.146;17.120;2024-03-17T10:23:03;100735.80;;;9.60
66372;BMP180;53168;51.146;17.120;2024-03-17T10:25:40;100738.40;;;9.70
66372;BMP180;53168;51.146;17.120;2024-03-17T10:28:18;100740.00;;;9.90
66372;BMP180;53168;51.146;17.120;2024-03-17T10:31:02;100746.60;;;9.58
66372;BMP180;53168;51.146;17.120;2024-03-17T10:33:35;100747.00;;;9.30
66372;BMP180;53168;51.146;17.120;2024-03-17T10:36:20;100743.20;;;9.00
66372;BMP180;53168;51.146;17.120;2024-03-17T10:38:54;100748.20;;;8.74
66372;BMP180;53168;51.146;17.120;2024-03-17T10:41:30;100757.40;;;8.50
66372;BMP180;53168;51.146;17.120;2024-03-17T10:44:05;100743.40;;;8.20
66372;BMP180;53168;51.146;17.120;2024-03-17T10:46:38;100747.00;;;8.40
66372;BMP180;53168;51.146;17.120;2024-03-17T10:49:24;100738.00;;;8.64
66372;BMP180;53168;51.146;17.120;2024-03-17T10:52:06;100737.60;;;8.94
66372;BMP180;53168;51.146;17.120;2024-03-17T10:54:42;100737.40;;;9.18
66372;BMP180;53168;51.146;17.120;2024-03-17T10:57:34;100732.20;;;9.46
66372;BMP180;53168;51.146;17.120;2024-03-17T11:00:13;100731.40;;;9.70
66372;BMP180;53168;51.146;17.120;2024-03-17T11:02:51;100730.80;;;9.90
66372;BMP180;53168;51.146;17.120;2024-03-17T11:05:27;100750.20;;;10.00
66372;BMP180;53168;51.146;17.120;2024-03-17T11:08:04;100721.80;;;9.90
66372;BMP180;53168;51.146;17.120;2024-03-17T11:10:41;100729.20;;;10.00
66372;BMP180;53168;51.146;17.120;2024-03-17T11:13:26;100742.60;;;9.74
66372;BMP180;53168;51.146;17.120;2024-03-17T11:15:59;100724.60;;;9.90
66372;BMP180;53168;51.146;17.120;2024-03-17T11:18:39;100721.40;;;9.90
66372;BMP180;53168;51.146;17.120;2024-03-17T11:21:26;100717.20;;;9.96
66372;BMP180;53168;51.146;17.120;2024-03-17T11:24:06;100718.80;;;10.26
66372;BMP180;53168;51.146;17.120;2024-03-17T11:26:53;100717.40;;;10.44
66372;BMP180;53168;51.146;17.120;2024-03-17T11:29:31;100706.60;;;10.70
66372;BMP180;53168;51.146;17.120;2024-03-17T11:32:26;100717.80;;;10.90
66372;BMP180;53168;51.146;17.120;2024-03-17T11:35:14;100721.80;;;10.62
66372;BMP180;53168;51.146;17.120;2024-03-17T11:37:45;100708.60;;;10.92
66372;BMP180;53168;51.146;17.120;2024-03-17T11:40:26;100710.20;;;11.20
66372;BMP180;53168;51.146;17.120;2024-03-17T11:43:06;100687.60;;;12.18
66372;BMP180;53168;51.146;17.120;2024-03-17T11:45:43;100689.00;;;13.66
66372;BMP180;53168;51.146;17.120;2024-03-17T11:48:17;100692.80;;;14.28
66372;BMP180;53168;51.146;17.120;2024-03-17T11:50:51;100677.20;;;14.96
66372;BMP180;53168;51.146;17.120;2024-03-17T11:53:24;100673.60;;;15.26
66372;BMP180;53168;51.146;17.120;2024-03-17T11:56:01;100699.80;;;15.80
66372;BMP180;53168;51.146;17.120;2024-03-17T11:58:43;100682.80;;;14.98
66372;BMP180;53168;51.146;17.120;2024-03-17T12:01:15;100691.60;;;14.70
66372;BMP180;53168;51.146;17.120;2024-03-17T12:03:51;100697.40;;;13.36
66372;BMP180;53168;51.146;17.120;2024-03-17T12:06:26;100706.80;;;12.54
66372;BMP180;53168;51.146;17.120;2024-03-17T12:09:13;100671.80;;;11.96
66372;BMP180;53168;51.146;17.120;2024-03-17T12:12:01;100675.80;;;11.94
66372;BMP180;53168;51.146;17.120;2024-03-17T12:14:36;100706.80;;;11.64
66372;BMP180;53168;51.146;17.120;2024-03-17T12:17:11;100708.40;;;11.00
66372;BMP180;53168;51.146;17.120;2024-03-17T12:19:46;100705.80;;;10.70
66372;BMP180;53168;51.146;17.120;2024-03-17T12:39:50;100656.20;;;16.62
66372;BMP180;53168;51.146;17.120;2024-03-17T12:42:27;100678.20;;;16.56
66372;BMP180;53168;51.146;17.120;2024-03-17T12:45:00;100688.80;;;14.82
66372;BMP180;53168;51.146;17.120;2024-03-17T12:47:32;100694.40;;;13.18
66372;BMP180;53168;51.146;17.120;2024-03-17T12:50:14;100683.00;;;12.42
66372;BMP180;53168;51.146;17.120;2024-03-17T12:52:55;100653.80;;;11.92
66372;BMP180;53168;51.146;17.120;2024-03-17T12:55:26;100679.60;;;12.04
66372;BMP180;53168;51.146;17.120;2024-03-17T12:58:16;100659.20;;;12.72
66372;BMP180;53168;51.146;17.120;2024-03-17T13:01:07;100653.60;;;13.78
66372;BMP180;53168;51.146;17.120;2024-03-17T13:03:39;100658.60;;;14.46
66372;BMP180;53168;51.146;17.120;2024-03-17T13:06:23;100646.60;;;15.08
66372;BMP180;53168;51.146;17.120;2024-03-17T13:08:54;100639.80;;;15.78
66372;BMP180;53168;51.146;17.120;2024-03-17T13:11:26;100662.40;;;16.16
66372;BMP180;53168;51.146;17.120;2024-03-17T13:14:01;100659.60;;;14.80
66372;BMP180;53168;51.146;17.120;2024-03-17T13:16:46;100656.40;;;13.70
66372;BMP180;53168;51.146;17.120;2024-03-17T13:19:18;100670.20;;;13.96
66372;BMP180;53168;51.146;17.120;2024-03-17T13:22:10;100673.60;;;13.06
66372;BMP180;53168;51.146;17.120;2024-03-17T13:24:42;100642.60;;;12.76
66372;BMP180;53168;51.146;17.120;2024-03-17T13:27:12;100635.60;;;13.84
66372;BMP180;53168;51.146;17.120;2024-03-17T13:29:48;100657.00;;;13.86
66372;BMP180;53168;51.146;17.120;2024-03-17T13:32:20;100641.00;;;14.44
66372;BMP180;53168;51.146;17.120;2024-03-17T13:34:54;100632.80;;;14.94
66372;BMP180;53168;51.146;17.120;2024-03-17T13:37:25;100637.20;;;15.50
66372;BMP180;53168;51.146;17.120;2024-03-17T13:39:56;100640.80;;;15.98
66372;BMP180;53168;51.146;17.120;2024-03-17T13:42:27;100641.20;;;16.40
66372;BMP180;53168;51.146;17.120;2024-03-17T13:44:58;100634.20;;;16.50
66372;BMP180;53168;51.146;17.120;2024-03-17T13:47:30;100631.40;;;16.30
66372;BMP180;53168;51.146;17.120;2024-03-17T13:50:01;100634.00;;;16.66
66372;BMP180;53168;51.146;17.120;2024-03-17T13:52:38;100632.00;;;17.12
66372;BMP180;53168;51.146;17.120;2024-03-17T13:55:16;100648.60;;;16.84
66372;BMP180;53168;51.146;17.120;2024-03-17T13:57:52;100672.80;;;15.10
66372;BMP180;53168;51.146;17.120;2024-03-17T14:00:26;100642.00;;;15.06
66372;BMP180;53168;51.146;17.120;2024-03-17T14:02:57;100628.40;;;15.82
66372;BMP180;53168;51.146;17.120;2024-03-17T14:05:28;100627.80;;;16.58
66372;BMP180;53168;51.146;17.120;2024-03-17T14:07:59;100663.40;;;17.24
66372;BMP180;53168;51.146;17.120;2024-03-17T14:10:30;100633.40;;;16.10
66372;BMP180;53168;51.146;17.120;2024-03-17T14:13:01;100618.20;;;16.36
66372;BMP180;53168;51.146;17.120;2024-03-17T14:15:32;100627.40;;;15.62
66372;BMP180;53168;51.146;17.120;2024-03-17T14:18:03;100625.00;;;15.90
66372;BMP180;53168;51.146;17.120;2024-03-17T14:20:39;100623.00;;;16.06
66372;BMP180;53168;51.146;17.120;2024-03-17T14:23:10;100615.80;;;16.40
66372;BMP180;53168;51.146;17.120;2024-03-17T14:25:41;100617.40;;;16.76
66372;BMP180;53168;51.146;17.120;2024-03-17T14:28:12;100647.00;;;16.42
66372;BMP180;53168;51.146;17.120;2024-03-17T14:30:43;100612.60;;;15.80
66372;BMP180;53168;51.146;17.120;2024-03-17T14:33:13;100659.20;;;15.12
66372;BMP180;53168;51.146;17.120;2024-03-17T14:35:44;100668.20;;;13.98
66372;BMP180;53168;51.146;17.120;2024-03-17T14:38:15;100662.60;;;12.86
66372;BMP180;53168;51.146;17.120;2024-03-17T14:40:47;100670.20;;;11.94
66372;BMP180;53168;51.146;17.120;2024-03-17T14:43:18;100639.20;;;11.30
66372;BMP180;53168;51.146;17.120;2024-03-17T14:45:49;100634.60;;;12.62
66372;BMP180;53168;51.146;17.120;2024-03-17T14:48:21;100651.60;;;13.64
66372;BMP180;53168;51.146;17.120;2024-03-17T14:50:54;100670.60;;;12.92
66372;BMP180;53168;51.146;17.120;2024-03-17T14:53:25;100630.80;;;13.46
66372;BMP180;53168;51.146;17.120;2024-03-17T14:55:56;100628.80;;;14.34
66372;BMP180;53168;51.146;17.120;2024-03-17T14:58:27;100668.20;;;14.32
66372;BMP180;53168;51.146;17.120;2024-03-17T15:00:59;100657.20;;;13.00
66372;BMP180;53168;51.146;17.120;2024-03-17T15:03:30;100661.00;;;11.90
66372;BMP180;53168;51.146;17.120;2024-03-17T15:06:00;100653.60;;;11.22
66372;BMP180;53168;51.146;17.120;2024-03-17T15:10:54;100624.40;;;12.08
66372;BMP180;53168;51.146;17.120;2024-03-17T15:13:29;100622.40;;;12.46
66372;BMP180;53168;51.146;17.120;2024-03-17T15:16:04;100629.80;;;13.06
66372;BMP180;53168;51.146;17.120;2024-03-17T15:18:39;100656.00;;;13.56
66372;BMP180;53168;51.146;17.120;2024-03-17T15:21:16;100653.00;;;12.62
66372;BMP180;53168;51.146;17.120;2024-03-17T15:23:52;100650.00;;;11.78
66372;BMP180;53168;51.146;17.120;2024-03-17T15:26:27;100653.00;;;11.70
66372;BMP180;53168;51.146;17.120;2024-03-17T15:29:01;100661.60;;;11.20
66372;BMP180;53168;51.146;17.120;2024-03-17T15:31:38;100661.40;;;11.00
66372;BMP180;53168;51.146;17.120;2024-03-17T15:34:14;100668.60;;;10.56